European Causeway — C6RG7 — position and weather

sailwx.info

Track history (hours):
 
Tides and Currents Weather Stations Pressure Air Temp Water Temp Dewpoint Dewpoint Depression Visibility Wind Speed Wind Dir Waves Ship Positions

European Causeway

Operator: P & O Irish Sea

Last reported at 2018-Jun-18 00:00 UTC. Time now 2018-Jun-18 00:24 UTC.
Position N 54°59' W 005°18'.

Length 145 m; draft 5.5 m.

Type: Passenger vessel. MMSI: 311027000.

Date/timePositionNaut miles runAvg speedWind from/ knotsBaromVisibWave heightAir tempDewpointWater temp
2018-Jun-18 00:00N 54°59' W 005°18'918.7
2018-Jun-17 23:30N 54°55' W 005°33'917.6
2018-Jun-17 22:59N 54°51' W 005°48'0 0.3
2018-Jun-17 22:28N 54°51' W 005°48'0 0.0
2018-Jun-17 21:46N 54°51' W 005°48'0 0.0
2018-Jun-17 21:28N 54°51' W 005°48'0 0.0
2018-Jun-17 20:58N 54°51' W 005°48'3 5.4
2018-Jun-17 20:30N 54°53' W 005°45'918.0
2018-Jun-17 19:59N 54°57' W 005°30'918.3
2018-Jun-17 19:29N 55°00' W 005°15'714.7
2018-Jun-17 18:58N 54°59' W 005°03'1 0.9
2018-Jun-17 17:21N 54°58' W 005°01'712.8
2018-Jun-17 16:49N 55°01' W 005°12'721.1
2018-Jun-17 16:28N 54°57' W 005°24'1019.9
2018-Jun-17 16:00N 54°54' W 005°39'610.4
2018-Jun-17 15:26N 54°51' W 005°48'0 0.0
2018-Jun-17 15:00N 54°51' W 005°48'0 0.0
2018-Jun-17 14:30N 54°51' W 005°48'911.9
2018-Jun-17 13:47N 54°55' W 005°35'416.1
2018-Jun-17 13:30N 54°57' W 005°28'1116.2
2018-Jun-17 12:50N 55°02' W 005°11'615.2
2018-Jun-17 12:28N 54°59' W 005°02'1 0.4
2018-Jun-17 08:53N 54°58' W 005°01'0 0.0
2018-Jun-17 08:29N 54°58' W 005°01'6 9.4
2018-Jun-17 07:53N 55°02' W 005°08'717.6
2018-Jun-17 07:30N 54°59' W 005°18'1018.6
2018-Jun-17 06:58N 54°55' W 005°35'817.5
2018-Jun-17 06:29N 54°51' W 005°48'0 0.6
2018-Jun-17 05:58N 54°51' W 005°48'0 0.0
2018-Jun-17 05:28N 54°51' W 005°48'0 0.0
2018-Jun-17 04:34N 54°51' W 005°48'0 0.0
2018-Jun-17 04:22N 54°51' W 005°48'0 0.0
2018-Jun-17 03:58N 54°51' W 005°48'0 0.0
2018-Jun-17 03:25N 54°51' W 005°48'0 0.0
2018-Jun-17 02:58N 54°51' W 005°48'0 0.0
2018-Jun-17 02:28N 54°51' W 005°48'0 0.0
2018-Jun-17 01:55N 54°51' W 005°48'0 0.0
2018-Jun-17 01:28N 54°51' W 005°48'0 0.0
2018-Jun-17 00:58N 54°51' W 005°48'0 0.0
2018-Jun-17 00:28N 54°51' W 005°48'0 0.0
2018-Jun-16 23:55N 54°51' W 005°48'0 0.0
2018-Jun-16 23:28N 54°51' W 005°48'0 0.0
2018-Jun-16 22:58N 54°51' W 005°48'0 0.0
2018-Jun-16 22:28N 54°51' W 005°48'0 0.0
2018-Jun-16 21:46N 54°51' W 005°48'0 0.0
2018-Jun-16 21:28N 54°51' W 005°48'0 0.0
2018-Jun-16 20:58N 54°51' W 005°48'3 6.6
2018-Jun-16 20:30N 54°53' W 005°44'918.4
2018-Jun-16 20:00N 54°57' W 005°29'918.8
2018-Jun-16 19:30N 55°01' W 005°14'713.8
2018-Jun-16 19:00N 54°59' W 005°03'1 3.0
2018-Jun-16 18:31N 54°58' W 005°01'0 0.0
2018-Jun-16 17:57N 54°58' W 005°01'0 0.0
2018-Jun-16 17:30N 54°58' W 005°01'5 8.4
2018-Jun-16 16:52N 55°02' W 005°07'818.8
2018-Jun-16 16:27N 54°58' W 005°20'818.2
2018-Jun-16 16:00N 54°55' W 005°33'917.4
2018-Jun-16 15:28N 54°52' W 005°48'1 1.5
2018-Jun-16 15:00N 54°51' W 005°48'0 0.0
2018-Jun-16 14:30N 54°51' W 005°48'4 7.0
2018-Jun-16 14:00N 54°54' W 005°44'918.6
2018-Jun-16 13:30N 54°57' W 005°29'918.5
2018-Jun-16 13:00N 55°01' W 005°14'8 5.5
2018-Jun-16 11:32N 54°58' W 005°01'0 0.5
2018-Jun-16 11:24N 54°58' W 005°01'612.9
2018-Jun-16 10:56N 55°01' W 005°09'818.2
2018-Jun-16 10:31N 54°58' W 005°21'1019.5
2018-Jun-16 10:00N 54°55' W 005°37'714.5
2018-Jun-16 09:31N 54°51' W 005°48'0 0.1
2018-Jun-16 09:00N 54°51' W 005°48'0 0.0
2018-Jun-16 08:30N 54°51' W 005°48'5 9.0
2018-Jun-16 07:58N 54°54' W 005°41'817.9
2018-Jun-16 07:30N 54°57' W 005°28'918.3
2018-Jun-16 07:00N 55°01' W 005°13'714.2
2018-Jun-16 06:30N 54°58' W 005°02'1 0.9
2018-Jun-16 05:44N 54°58' W 005°01'0 0.0
2018-Jun-16 05:22N 54°58' W 005°01'0 0.0
2018-Jun-16 04:58N 54°58' W 005°01'610.2
2018-Jun-16 04:22N 55°02' W 005°09'718.5
2018-Jun-16 04:00N 54°58' W 005°19'918.1
2018-Jun-16 03:30N 54°55' W 005°34'917.0
2018-Jun-16 03:00N 54°51' W 005°48'0 0.9
2018-Jun-16 02:30N 54°51' W 005°48'0 0.0
2018-Jun-16 02:00N 54°51' W 005°48'0 0.0
2018-Jun-16 01:30N 54°51' W 005°48'0 0.0
2018-Jun-16 01:01N 54°51' W 005°48'611.3
2018-Jun-16 00:26N 54°55' W 005°39'614.6
2018-Jun-16 00:00N 54°57' W 005°29'816.9
2018-Jun-15 23:30N 55°01' W 005°15'814.8
2018-Jun-15 23:00N 54°59' W 005°02'1 0.8
2018-Jun-15 21:22N 54°58' W 005°01'0 0.1
2018-Jun-15 20:52N 54°58' W 005°01'612.3
2018-Jun-15 20:21N 55°02' W 005°10'617.5
2018-Jun-15 20:00N 54°58' W 005°19'1019.6
2018-Jun-15 19:30N 54°55' W 005°35'816.0
2018-Jun-15 18:58N 54°51' W 005°48'0 0.1
2018-Jun-15 18:30N 54°51' W 005°48'0 0.0
2018-Jun-15 18:00N 54°51' W 005°48'0 0.0
2018-Jun-15 17:31N 54°51' W 005°48'713.3
2018-Jun-15 16:58N 54°55' W 005°37'919.2
2018-Jun-15 16:31N 54°58' W 005°23'918.6
2018-Jun-15 16:01N 55°02' W 005°08'6 4.4
2018-Jun-15 14:39N 54°58' W 005°01'0 0.6
2018-Jun-15 14:25N 54°58' W 005°01'612.0
2018-Jun-15 13:57N 55°02' W 005°08'921.5
2018-Jun-15 13:30N 54°57' W 005°23'1020.4
2018-Jun-15 13:00N 54°54' W 005°40'510.9
2018-Jun-15 12:30N 54°51' W 005°48'0 0.0
2018-Jun-15 12:00N 54°51' W 005°48'0 0.1
2018-Jun-15 11:30N 54°51' W 005°48'815.5
2018-Jun-15 10:59N 54°55' W 005°36'1020.4
2018-Jun-15 10:30N 54°59' W 005°20'1015.9
2018-Jun-15 09:52N 54°59' W 005°03'2 1.0
2018-Jun-15 08:20N 54°58' W 005°01'611.6
2018-Jun-15 07:50N 55°01' W 005°09'617.1
2018-Jun-15 07:30N 54°59' W 005°17'816.7
2018-Jun-15 07:01N 54°56' W 005°30'816.8
2018-Jun-15 06:30N 54°53' W 005°44'3 5.6
2018-Jun-15 06:00N 54°51' W 005°48'0 0.0
2018-Jun-15 05:30N 54°51' W 005°48'0 0.0
2018-Jun-15 05:00N 54°51' W 005°48'510.7
2018-Jun-15 04:30N 54°54' W 005°40'918.5
2018-Jun-15 04:00N 54°58' W 005°26'917.7
2018-Jun-15 03:30N 55°01' W 005°11'7 2.7
2018-Jun-15 00:54N 54°58' W 005°01'711.9
2018-Jun-15 00:18N 55°01' W 005°11'619.2
2018-Jun-15 00:00N 54°58' W 005°20'918.8
2018-Jun-14 23:30N 54°55' W 005°35'816.6
2018-Jun-14 23:00N 54°51' W 005°48'0 0.2
2018-Jun-14 22:25N 54°51' W 005°48'0 0.0
2018-Jun-14 21:55N 54°51' W 005°48'0 0.0
2018-Jun-14 21:28N 54°51' W 005°48'0 0.0
2018-Jun-14 21:01N 54°51' W 005°48'510.9
2018-Jun-14 20:30N 54°54' W 005°40'917.6
2018-Jun-14 20:01N 54°57' W 005°26'918.2
2018-Jun-14 19:30N 55°01' W 005°12'612.8
2018-Jun-14 19:00N 54°58' W 005°02'1 1.4
2018-Jun-14 18:28N 54°58' W 005°01'0 0.0
2018-Jun-14 18:01N 54°58' W 005°01'0 0.1
2018-Jun-14 17:25N 54°58' W 005°01'510.4
2018-Jun-14 16:56N 55°01' W 005°07'919.3
2018-Jun-14 16:28N 54°58' W 005°22'920.3
2018-Jun-14 16:00N 54°54' W 005°36'714.9
2018-Jun-14 15:30N 54°51' W 005°48'0 0.1
2018-Jun-14 15:00N 54°51' W 005°48'0 0.0
2018-Jun-14 14:31N 54°51' W 005°48'712.3
2018-Jun-14 13:58N 54°54' W 005°38'1022.3
2018-Jun-14 13:30N 54°59' W 005°22'1115.4
2018-Jun-14 12:47N 54°59' W 005°03'2 3.8
2018-Jun-14 12:23N 54°58' W 005°01'0 0.1
2018-Jun-14 11:47N 54°58' W 005°01'612.7
2018-Jun-14 11:20N 55°02' W 005°08'721.0
2018-Jun-14 11:00N 54°59' W 005°19'1120.6
2018-Jun-14 10:28N 54°54' W 005°37'715.6
2018-Jun-14 10:00N 54°51' W 005°48'0 0.0
2018-Jun-14 09:30N 54°51' W 005°48'0 0.0
2018-Jun-14 09:00N 54°51' W 005°48'0 0.1
2018-Jun-14 08:30N 54°51' W 005°48'611.0
2018-Jun-14 07:57N 54°54' W 005°39'818.7
2018-Jun-14 07:30N 54°58' W 005°26'1314.0
2018-Jun-14 06:33N 54°59' W 005°02'115.1
2018-Jun-14 06:30N 54°58' W 005°02'1 0.4
2018-Jun-14 04:52N 54°58' W 005°01'611.2
2018-Jun-14 04:20N 55°01' W 005°09'618.2
2018-Jun-14 04:00N 54°59' W 005°18'1018.2
2018-Jun-14 03:28N 54°55' W 005°34'916.9
2018-Jun-14 02:57N 54°51' W 005°48'0 0.4
2018-Jun-14 02:30N 54°51' W 005°48'0 0.0
2018-Jun-14 02:00N 54°51' W 005°48'0 0.0
2018-Jun-14 01:30N 54°51' W 005°48'0 0.0
2018-Jun-14 01:00N 54°51' W 005°48'4 7.8
2018-Jun-14 00:30N 54°53' W 005°42'1020.7
2018-Jun-14 00:01N 54°58' W 005°26'1414.6
2018-Jun-13 23:04N 54°59' W 005°02'115.5
2018-Jun-13 23:00N 54°58' W 005°02'0 0.2
2018-Jun-13 20:56N 54°58' W 005°01'512.1
2018-Jun-13 20:30N 55°02' W 005°07'816.3
2018-Jun-13 20:01N 54°58' W 005°20'1019.7
2018-Jun-13 19:30N 54°54' W 005°35'815.9
2018-Jun-13 19:00N 54°51' W 005°48'0 0.2
2018-Jun-13 18:30N 54°51' W 005°48'0 0.0
2018-Jun-13 17:59N 54°51' W 005°48'0 0.0
2018-Jun-13 17:30N 54°51' W 005°48'510.6
2018-Jun-13 17:00N 54°54' W 005°40'1020.2
2018-Jun-13 16:31N 54°58' W 005°25'1316.1
2018-Jun-13 15:44N 54°59' W 005°03'2 2.9
2018-Jun-13 15:10N 54°58' W 005°01'0 0.0
2018-Jun-13 15:01N 54°58' W 005°01'0 0.3
2018-Jun-13 14:19N 54°58' W 005°01'613.2
2018-Jun-13 13:49N 55°01' W 005°11'721.7
2018-Jun-13 13:30N 54°58' W 005°22'918.5
2018-Jun-13 12:59N 54°54' W 005°37'713.6
2018-Jun-13 12:28N 54°51' W 005°48'0 0.1
2018-Jun-13 11:58N 54°51' W 005°48'0 0.0
2018-Jun-13 11:28N 54°51' W 005°48'510.1
2018-Jun-13 10:59N 54°53' W 005°41'918.7
2018-Jun-13 10:30N 54°58' W 005°27'1017.9
2018-Jun-13 09:56N 55°02' W 005°11'7 4.6
2018-Jun-13 08:28N 54°58' W 005°01'7 9.9
2018-Jun-13 07:43N 55°01' W 005°13'417.9
2018-Jun-13 07:30N 54°59' W 005°18'917.4
2018-Jun-13 07:00N 54°55' W 005°32'918.6
2018-Jun-13 06:30N 54°51' W 005°48'1 1.2
2018-Jun-13 05:55N 54°51' W 005°48'0 0.0
2018-Jun-13 05:30N 54°51' W 005°48'0 0.0
2018-Jun-13 05:00N 54°51' W 005°48'4 8.1
2018-Jun-13 04:28N 54°54' W 005°43'818.5
2018-Jun-13 04:00N 54°58' W 005°29'917.9
2018-Jun-13 03:29N 55°01' W 005°15'814.2
2018-Jun-13 02:56N 54°58' W 005°02'1 1.2
2018-Jun-13 02:15N 54°58' W 005°01'0 0.0
2018-Jun-13 01:59N 54°58' W 005°01'0 0.0
2018-Jun-13 01:17N 54°58' W 005°01'0 0.0
2018-Jun-13 00:58N 54°58' W 005°01'710.8
2018-Jun-13 00:18N 55°01' W 005°12'619.8
2018-Jun-13 00:00N 54°58' W 005°21'918.4
2018-Jun-12 23:30N 54°54' W 005°36'815.3
2018-Jun-12 23:00N 54°51' W 005°48'0 0.2
2018-Jun-12 22:30N 54°51' W 005°48'0 0.0
2018-Jun-12 22:00N 54°51' W 005°48'0 0.0
2018-Jun-12 21:30N 54°51' W 005°48'0 0.0
2018-Jun-12 21:00N 54°51' W 005°48'4 8.2
2018-Jun-12 20:30N 54°53' W 005°42'918.3
2018-Jun-12 20:00N 54°57' W 005°28'1018.6
2018-Jun-12 19:29N 55°01' W 005°12'612.7
2018-Jun-12 19:00N 54°59' W 005°02'1 2.1
2018-Jun-12 18:29N 54°58' W 005°01'0 0.0
2018-Jun-12 18:00N 54°58' W 005°01'0 0.0
2018-Jun-12 17:29N 54°58' W 005°01'5 9.5
2018-Jun-12 16:58N 55°02' W 005°06'918.9
2018-Jun-12 16:30N 54°58' W 005°20'1020.9
2018-Jun-12 16:00N 54°54' W 005°37'713.9
2018-Jun-12 15:30N 54°51' W 005°48'0 0.0
2018-Jun-12 14:56N 54°51' W 005°48'0 0.0
2018-Jun-12 14:30N 54°51' W 005°48'612.1
2018-Jun-12 14:00N 54°54' W 005°39'1019.2
2018-Jun-12 13:30N 54°58' W 005°24'918.2
2018-Jun-12 13:00N 55°01' W 005°09'612.1
2018-Jun-12 12:30N 54°58' W 005°01'0 0.0
2018-Jun-12 11:49N 54°58' W 005°01'0 0.0
2018-Jun-12 11:30N 54°58' W 005°01'5 9.0
2018-Jun-12 10:56N 55°02' W 005°07'818.9
2018-Jun-12 10:30N 54°58' W 005°19'918.3
2018-Jun-12 10:00N 54°55' W 005°34'917.0
2018-Jun-12 09:30N 54°51' W 005°48'0 0.2
2018-Jun-12 08:50N 54°51' W 005°48'0 0.0
2018-Jun-12 08:30N 54°51' W 005°48'610.0
2018-Jun-12 07:56N 54°54' W 005°40'716.1
2018-Jun-12 07:30N 54°57' W 005°29'918.3
2018-Jun-12 07:00N 55°01' W 005°14'713.8
2018-Jun-12 06:30N 54°59' W 005°02'1 0.8
2018-Jun-12 04:53N 54°58' W 005°01'611.0
2018-Jun-12 04:22N 55°01' W 005°08'617.9
2018-Jun-12 04:00N 54°59' W 005°18'1019.2
2018-Jun-12 03:30N 54°55' W 005°34'917.5
2018-Jun-12 03:00N 54°51' W 005°48'0 0.4
2018-Jun-12 02:30N 54°51' W 005°48'0 0.0
2018-Jun-12 02:00N 54°51' W 005°48'0 0.0
2018-Jun-12 01:30N 54°51' W 005°48'0 0.0
2018-Jun-12 01:00N 54°51' W 005°48'4 8.2
2018-Jun-12 00:29N 54°53' W 005°42'715.5
2018-Jun-12 00:00N 54°57' W 005°30'918.4
2018-Jun-11 23:30N 55°00' W 005°16'814.3
2018-Jun-11 22:58N 54°59' W 005°03'1 2.7
2018-Jun-11 22:26N 54°58' W 005°01'0 0.0
2018-Jun-11 20:56N 54°58' W 005°01'511.4
2018-Jun-11 20:27N 55°02' W 005°08'918.4
2018-Jun-11 19:58N 54°58' W 005°22'918.9
2018-Jun-11 19:30N 54°54' W 005°36'815.5
2018-Jun-11 19:01N 54°51' W 005°48'0 0.1
2018-Jun-11 18:24N 54°51' W 005°48'0 0.0
2018-Jun-11 18:00N 54°51' W 005°48'0 0.0
2018-Jun-11 17:30N 54°51' W 005°48'510.3
2018-Jun-11 17:00N 54°53' W 005°40'917.6
2018-Jun-11 16:30N 54°58' W 005°27'918.1
2018-Jun-11 16:00N 55°01' W 005°12'612.7
2018-Jun-11 15:30N 54°58' W 005°02'1 1.9
2018-Jun-11 14:58N 54°58' W 005°01'0 0.0
2018-Jun-11 14:30N 54°58' W 005°01'5 9.5
2018-Jun-11 13:55N 55°02' W 005°08'920.5
2018-Jun-11 13:30N 54°58' W 005°21'1020.3
2018-Jun-11 13:01N 54°54' W 005°37'713.6
2018-Jun-11 12:30N 54°51' W 005°48'0 0.0
2018-Jun-11 12:00N 54°51' W 005°48'0 0.0
2018-Jun-11 11:28N 54°51' W 005°48'510.1
2018-Jun-11 10:59N 54°54' W 005°41'918.2
2018-Jun-11 10:30N 54°57' W 005°27'918.2
2018-Jun-11 10:01N 55°01' W 005°13'713.9
2018-Jun-11 09:30N 54°58' W 005°02'1 1.0
2018-Jun-11 08:47N 54°58' W 005°01'0 0.0
2018-Jun-11 08:25N 54°58' W 005°01'610.4
2018-Jun-11 07:51N 55°02' W 005°09'618.1
2018-Jun-11 07:30N 54°59' W 005°18'1018.6
2018-Jun-11 06:58N 54°54' W 005°35'817.0
2018-Jun-11 06:28N 54°51' W 005°48'0 0.3
2018-Jun-11 06:00N 54°51' W 005°48'0 0.0
2018-Jun-11 05:29N 54°51' W 005°48'0 0.0
2018-Jun-11 05:00N 54°51' W 005°48'4 8.5
2018-Jun-11 04:30N 54°53' W 005°42'918.5
2018-Jun-11 04:00N 54°57' W 005°27'918.9
2018-Jun-11 03:30N 55°01' W 005°12'612.9
2018-Jun-11 03:00N 54°58' W 005°02'1 0.4
2018-Jun-11 00:51N 54°58' W 005°01'612.0
2018-Jun-11 00:23N 55°02' W 005°08'719.1
2018-Jun-11 00:00N 54°58' W 005°19'918.4
2018-Jun-10 23:30N 54°55' W 005°35'816.8
2018-Jun-10 23:00N 54°51' W 005°48'0 0.5
2018-Jun-10 22:30N 54°51' W 005°48'0 0.0
2018-Jun-10 22:00N 54°51' W 005°48'0 0.0
2018-Jun-10 21:30N 54°51' W 005°48'0 0.0
2018-Jun-10 20:59N 54°51' W 005°48'4 9.2
2018-Jun-10 20:30N 54°53' W 005°42'817.0
2018-Jun-10 20:00N 54°57' W 005°28'816.9
2018-Jun-10 19:30N 55°00' W 005°15'713.7
2018-Jun-10 18:59N 54°59' W 005°03'2 3.1
2018-Jun-10 18:28N 54°58' W 005°01'0 0.0
2018-Jun-10 17:58N 54°58' W 005°01'0 0.0
2018-Jun-10 17:28N 54°58' W 005°01'510.6
2018-Jun-10 16:58N 55°02' W 005°07'817.3
2018-Jun-10 16:30N 54°58' W 005°20'918.8
2018-Jun-10 16:00N 54°55' W 005°35'816.2
2018-Jun-10 15:30N 54°51' W 005°48'0 0.3
2018-Jun-10 14:57N 54°51' W 005°48'4 4.6
2018-Jun-10 14:00N 54°53' W 005°42'917.8
2018-Jun-10 13:30N 54°57' W 005°28'816.9
2018-Jun-10 13:00N 55°01' W 005°14'713.1
2018-Jun-10 12:28N 54°59' W 005°02'1 0.3
2018-Jun-10 08:27N 54°58' W 005°01'610.1
2018-Jun-10 07:52N 55°02' W 005°09'616.9
2018-Jun-10 07:30N 54°59' W 005°18'916.8
2018-Jun-10 07:00N 54°55' W 005°32'1018.7
2018-Jun-10 06:28N 54°52' W 005°47'1 2.0
2018-Jun-10 05:55N 54°51' W 005°48'0 0.0
2018-Jun-10 05:25N 54°51' W 005°48'0 0.0
2018-Jun-10 04:58N 54°51' W 005°48'0 0.0
2018-Jun-10 04:28N 54°51' W 005°48'0 0.0
2018-Jun-10 03:58N 54°51' W 005°48'0 0.0
2018-Jun-10 03:28N 54°51' W 005°48'0 0.0
2018-Jun-10 02:58N 54°51' W 005°48'0 0.0
2018-Jun-10 02:28N 54°51' W 005°48'0 0.0
2018-Jun-10 01:58N 54°51' W 005°48'0 0.0
2018-Jun-10 01:28N 54°51' W 005°48'0 0.0
2018-Jun-10 00:58N 54°51' W 005°48'0 0.0
2018-Jun-10 00:28N 54°51' W 005°48'0 0.0
2018-Jun-09 23:58N 54°51' W 005°48'0 0.0
2018-Jun-09 23:19N 54°51' W 005°48'0 0.0
2018-Jun-09 22:58N 54°51' W 005°48'0 0.0
2018-Jun-09 22:25N 54°51' W 005°48'0 0.0
2018-Jun-09 21:58N 54°51' W 005°48'0 0.0
2018-Jun-09 21:16N 54°51' W 005°48'0 0.0
2018-Jun-09 21:00N 54°51' W 005°48'4 7.5
2018-Jun-09 20:30N 54°53' W 005°43'917.2
2018-Jun-09 20:00N 54°57' W 005°29'917.7
2018-Jun-09 19:30N 55°00' W 005°15'713.7
2018-Jun-09 19:00N 54°59' W 005°03'2 3.7
2018-Jun-09 18:26N 54°58' W 005°01'0 0.0
2018-Jun-09 17:56N 54°58' W 005°01'0 0.0
2018-Jun-09 17:29N 54°58' W 005°01'5 9.0
2018-Jun-09 16:57N 55°02' W 005°06'817.5
2018-Jun-09 16:30N 54°59' W 005°19'918.3
2018-Jun-09 16:00N 54°55' W 005°33'9 8.9
2018-Jun-09 14:57N 54°51' W 005°48'0 0.0
2018-Jun-09 14:27N 54°51' W 005°48'510.8
2018-Jun-09 14:00N 54°54' W 005°41'918.4
2018-Jun-09 13:30N 54°58' W 005°27'918.2
2018-Jun-09 12:59N 55°02' W 005°12'714.2
2018-Jun-09 12:30N 54°58' W 005°01'0 0.4
2018-Jun-09 11:41N 54°58' W 005°01'0 0.5
2018-Jun-09 11:18N 54°58' W 005°01'514.3
2018-Jun-09 10:57N 55°02' W 005°07'919.3
2018-Jun-09 10:31N 54°58' W 005°20'1019.1
2018-Jun-09 10:00N 54°54' W 005°36'815.7
2018-Jun-09 09:30N 54°51' W 005°48'0 0.1
2018-Jun-09 09:00N 54°51' W 005°48'0 0.0
2018-Jun-09 08:28N 54°51' W 005°48'3 5.6
2018-Jun-09 08:01N 54°53' W 005°45'918.8
2018-Jun-09 07:30N 54°57' W 005°30'918.6
2018-Jun-09 07:00N 55°01' W 005°15'714.5
2018-Jun-09 06:30N 54°59' W 005°03'2 3.1
2018-Jun-09 05:59N 54°58' W 005°01'0 0.0
2018-Jun-09 05:17N 54°58' W 005°01'0 0.0
2018-Jun-09 05:00N 54°58' W 005°01'510.2
2018-Jun-09 04:29N 55°02' W 005°07'714.8
2018-Jun-09 04:01N 54°59' W 005°19'816.5
2018-Jun-09 03:30N 54°55' W 005°32'918.1
2018-Jun-09 03:00N 54°52' W 005°47'1 2.8
2018-Jun-09 02:30N 54°51' W 005°48'0 0.0
2018-Jun-09 02:00N 54°51' W 005°48'0 0.0
2018-Jun-09 01:30N 54°51' W 005°48'0 0.0
2018-Jun-09 00:59N 54°51' W 005°48'4 7.3
2018-Jun-09 00:30N 54°53' W 005°43'917.5
2018-Jun-09 00:00N 54°57' W 005°30'1018.2
2018-Jun-08 23:27N 55°01' W 005°13'614.5
2018-Jun-08 23:00N 54°59' W 005°03'2 2.8
2018-Jun-08 22:26N 54°58' W 005°01'0 0.0
2018-Jun-08 21:44N 54°58' W 005°01'0 0.6
2018-Jun-08 21:30N 54°58' W 005°01'612.8
2018-Jun-08 21:00N 55°01' W 005°11'1122.7
2018-Jun-08 20:30N 54°56' W 005°28'1121.3
2018-Jun-08 19:59N 54°52' W 005°47'1 2.8
2018-Jun-08 19:28N 54°51' W 005°48'0 0.0
2018-Jun-08 18:58N 54°51' W 005°48'0 0.0
2018-Jun-08 18:28N 54°51' W 005°48'0 0.0
2018-Jun-08 17:58N 54°51' W 005°48'0 0.0
2018-Jun-08 17:28N 54°51' W 005°48'510.0
2018-Jun-08 17:00N 54°53' W 005°41'919.0
2018-Jun-08 16:30N 54°58' W 005°26'1019.3
2018-Jun-08 16:00N 55°02' W 005°12'714.6
2018-Jun-08 15:30N 54°58' W 005°01'0 0.0
2018-Jun-08 14:35N 54°58' W 005°01'0 0.0
2018-Jun-08 14:28N 54°58' W 005°01'5 9.4
2018-Jun-08 13:54N 55°02' W 005°08'820.3
2018-Jun-08 13:30N 54°58' W 005°20'1121.3
2018-Jun-08 13:00N 54°54' W 005°37'713.6
2018-Jun-08 12:30N 54°51' W 005°48'0 0.0
2018-Jun-08 11:58N 54°51' W 005°48'0 0.0
2018-Jun-08 11:30N 54°51' W 005°48'510.1
2018-Jun-08 11:00N 54°54' W 005°41'918.7
2018-Jun-08 10:30N 54°59' W 005°27'918.4
2018-Jun-08 10:01N 55°04' W 005°14'816.4
2018-Jun-08 09:31N 54°59' W 005°02'1 2.4
2018-Jun-08 08:58N 54°58' W 005°01'0 0.0
2018-Jun-08 08:28N 54°58' W 005°01'5 9.4
2018-Jun-08 07:54N 55°02' W 005°07'717.1
2018-Jun-08 07:30N 54°59' W 005°18'917.1
2018-Jun-08 07:00N 54°55' W 005°32'918.8
2018-Jun-08 06:30N 54°52' W 005°47'1 2.5
2018-Jun-08 05:58N 54°51' W 005°48'0 0.0
2018-Jun-08 05:28N 54°51' W 005°48'0 0.0
2018-Jun-08 05:00N 54°51' W 005°48'5 9.4
2018-Jun-08 04:30N 54°53' W 005°41'815.4
2018-Jun-08 04:01N 54°57' W 005°29'917.5
2018-Jun-08 03:30N 55°00' W 005°15'714.5
2018-Jun-08 03:00N 54°59' W 005°03'1 2.2
2018-Jun-08 02:19N 54°58' W 005°01'0 0.0
2018-Jun-08 01:13N 54°58' W 005°01'0 0.0
2018-Jun-08 01:00N 54°58' W 005°01'3 6.8
2018-Jun-08 00:30N 55°00' W 005°04'  
Track history (hours):
 
Tides and Currents Weather Stations Pressure Air Temp Water Temp Dewpoint Dewpoint Depression Visibility Wind Speed Wind Dir Waves Ship Positions

European Causeway

Operator: P & O Irish Sea

Last reported at 2018-Jun-18 00:00 UTC. Time now 2018-Jun-18 00:24 UTC.
Position N 54°59' W 005°18'.

Length 145 m; draft 5.5 m.

Type: Passenger vessel. MMSI: 311027000.

Date/timePositionNaut miles runAvg speedWind from/ knotsBaromVisibWave heightAir tempDewpointWater temp
2018-Jun-18 00:00N 54°59' W 005°18'918.7
2018-Jun-17 23:30N 54°55' W 005°33'917.6
2018-Jun-17 22:59N 54°51' W 005°48'0 0.3
2018-Jun-17 22:28N 54°51' W 005°48'0 0.0
2018-Jun-17 21:46N 54°51' W 005°48'0 0.0
2018-Jun-17 21:28N 54°51' W 005°48'0 0.0
2018-Jun-17 20:58N 54°51' W 005°48'3 5.4
2018-Jun-17 20:30N 54°53' W 005°45'918.0
2018-Jun-17 19:59N 54°57' W 005°30'918.3
2018-Jun-17 19:29N 55°00' W 005°15'714.7
2018-Jun-17 18:58N 54°59' W 005°03'1 0.9
2018-Jun-17 17:21N 54°58' W 005°01'712.8
2018-Jun-17 16:49N 55°01' W 005°12'721.1
2018-Jun-17 16:28N 54°57' W 005°24'1019.9
2018-Jun-17 16:00N 54°54' W 005°39'610.4
2018-Jun-17 15:26N 54°51' W 005°48'0 0.0
2018-Jun-17 15:00N 54°51' W 005°48'0 0.0
2018-Jun-17 14:30N 54°51' W 005°48'911.9
2018-Jun-17 13:47N 54°55' W 005°35'416.1
2018-Jun-17 13:30N 54°57' W 005°28'1116.2
2018-Jun-17 12:50N 55°02' W 005°11'615.2
2018-Jun-17 12:28N 54°59' W 005°02'1 0.4
2018-Jun-17 08:53N 54°58' W 005°01'0 0.0
2018-Jun-17 08:29N 54°58' W 005°01'6 9.4
2018-Jun-17 07:53N 55°02' W 005°08'717.6
2018-Jun-17 07:30N 54°59' W 005°18'1018.6
2018-Jun-17 06:58N 54°55' W 005°35'817.5
2018-Jun-17 06:29N 54°51' W 005°48'0 0.6
2018-Jun-17 05:58N 54°51' W 005°48'0 0.0
2018-Jun-17 05:28N 54°51' W 005°48'0 0.0
2018-Jun-17 04:34N 54°51' W 005°48'0 0.0
2018-Jun-17 04:22N 54°51' W 005°48'0 0.0
2018-Jun-17 03:58N 54°51' W 005°48'0 0.0
2018-Jun-17 03:25N 54°51' W 005°48'0 0.0
2018-Jun-17 02:58N 54°51' W 005°48'0 0.0
2018-Jun-17 02:28N 54°51' W 005°48'0 0.0
2018-Jun-17 01:55N 54°51' W 005°48'0 0.0
2018-Jun-17 01:28N 54°51' W 005°48'0 0.0
2018-Jun-17 00:58N 54°51' W 005°48'0 0.0
2018-Jun-17 00:28N 54°51' W 005°48'0 0.0
2018-Jun-16 23:55N 54°51' W 005°48'0 0.0
2018-Jun-16 23:28N 54°51' W 005°48'0 0.0
2018-Jun-16 22:58N 54°51' W 005°48'0 0.0
2018-Jun-16 22:28N 54°51' W 005°48'0 0.0
2018-Jun-16 21:46N 54°51' W 005°48'0 0.0
2018-Jun-16 21:28N 54°51' W 005°48'0 0.0
2018-Jun-16 20:58N 54°51' W 005°48'3 6.6
2018-Jun-16 20:30N 54°53' W 005°44'918.4
2018-Jun-16 20:00N 54°57' W 005°29'918.8
2018-Jun-16 19:30N 55°01' W 005°14'713.8
2018-Jun-16 19:00N 54°59' W 005°03'1 3.0
2018-Jun-16 18:31N 54°58' W 005°01'0 0.0
2018-Jun-16 17:57N 54°58' W 005°01'0 0.0
2018-Jun-16 17:30N 54°58' W 005°01'5 8.4
2018-Jun-16 16:52N 55°02' W 005°07'818.8
2018-Jun-16 16:27N 54°58' W 005°20'818.2
2018-Jun-16 16:00N 54°55' W 005°33'917.4
2018-Jun-16 15:28N 54°52' W 005°48'1 1.5
2018-Jun-16 15:00N 54°51' W 005°48'0 0.0
2018-Jun-16 14:30N 54°51' W 005°48'4 7.0
2018-Jun-16 14:00N 54°54' W 005°44'918.6
2018-Jun-16 13:30N 54°57' W 005°29'918.5
2018-Jun-16 13:00N 55°01' W 005°14'8 5.5
2018-Jun-16 11:32N 54°58' W 005°01'0 0.5
2018-Jun-16 11:24N 54°58' W 005°01'612.9
2018-Jun-16 10:56N 55°01' W 005°09'818.2
2018-Jun-16 10:31N 54°58' W 005°21'1019.5
2018-Jun-16 10:00N 54°55' W 005°37'714.5
2018-Jun-16 09:31N 54°51' W 005°48'0 0.1
2018-Jun-16 09:00N 54°51' W 005°48'0 0.0
2018-Jun-16 08:30N 54°51' W 005°48'5 9.0
2018-Jun-16 07:58N 54°54' W 005°41'817.9
2018-Jun-16 07:30N 54°57' W 005°28'918.3
2018-Jun-16 07:00N 55°01' W 005°13'714.2
2018-Jun-16 06:30N 54°58' W 005°02'1 0.9
2018-Jun-16 05:44N 54°58' W 005°01'0 0.0
2018-Jun-16 05:22N 54°58' W 005°01'0 0.0
2018-Jun-16 04:58N 54°58' W 005°01'610.2
2018-Jun-16 04:22N 55°02' W 005°09'718.5
2018-Jun-16 04:00N 54°58' W 005°19'918.1
2018-Jun-16 03:30N 54°55' W 005°34'917.0
2018-Jun-16 03:00N 54°51' W 005°48'0 0.9
2018-Jun-16 02:30N 54°51' W 005°48'0 0.0
2018-Jun-16 02:00N 54°51' W 005°48'0 0.0
2018-Jun-16 01:30N 54°51' W 005°48'0 0.0
2018-Jun-16 01:01N 54°51' W 005°48'611.3
2018-Jun-16 00:26N 54°55' W 005°39'614.6
2018-Jun-16 00:00N 54°57' W 005°29'816.9
2018-Jun-15 23:30N 55°01' W 005°15'814.8
2018-Jun-15 23:00N 54°59' W 005°02'1 0.8
2018-Jun-15 21:22N 54°58' W 005°01'0 0.1
2018-Jun-15 20:52N 54°58' W 005°01'612.3
2018-Jun-15 20:21N 55°02' W 005°10'617.5
2018-Jun-15 20:00N 54°58' W 005°19'1019.6
2018-Jun-15 19:30N 54°55' W 005°35'816.0
2018-Jun-15 18:58N 54°51' W 005°48'0 0.1
2018-Jun-15 18:30N 54°51' W 005°48'0 0.0
2018-Jun-15 18:00N 54°51' W 005°48'0 0.0
2018-Jun-15 17:31N 54°51' W 005°48'713.3
2018-Jun-15 16:58N 54°55' W 005°37'919.2
2018-Jun-15 16:31N 54°58' W 005°23'918.6
2018-Jun-15 16:01N 55°02' W 005°08'6 4.4
2018-Jun-15 14:39N 54°58' W 005°01'0 0.6
2018-Jun-15 14:25N 54°58' W 005°01'612.0
2018-Jun-15 13:57N 55°02' W 005°08'921.5
2018-Jun-15 13:30N 54°57' W 005°23'1020.4
2018-Jun-15 13:00N 54°54' W 005°40'510.9
2018-Jun-15 12:30N 54°51' W 005°48'0 0.0
2018-Jun-15 12:00N 54°51' W 005°48'0 0.1
2018-Jun-15 11:30N 54°51' W 005°48'815.5
2018-Jun-15 10:59N 54°55' W 005°36'1020.4
2018-Jun-15 10:30N 54°59' W 005°20'1015.9
2018-Jun-15 09:52N 54°59' W 005°03'2 1.0
2018-Jun-15 08:20N 54°58' W 005°01'611.6
2018-Jun-15 07:50N 55°01' W 005°09'617.1
2018-Jun-15 07:30N 54°59' W 005°17'816.7
2018-Jun-15 07:01N 54°56' W 005°30'816.8
2018-Jun-15 06:30N 54°53' W 005°44'3 5.6
2018-Jun-15 06:00N 54°51' W 005°48'0 0.0
2018-Jun-15 05:30N 54°51' W 005°48'0 0.0
2018-Jun-15 05:00N 54°51' W 005°48'510.7
2018-Jun-15 04:30N 54°54' W 005°40'918.5
2018-Jun-15 04:00N 54°58' W 005°26'917.7
2018-Jun-15 03:30N 55°01' W 005°11'7 2.7
2018-Jun-15 00:54N 54°58' W 005°01'711.9
2018-Jun-15 00:18N 55°01' W 005°11'619.2
2018-Jun-15 00:00N 54°58' W 005°20'918.8
2018-Jun-14 23:30N 54°55' W 005°35'816.6
2018-Jun-14 23:00N 54°51' W 005°48'0 0.2
2018-Jun-14 22:25N 54°51' W 005°48'0 0.0
2018-Jun-14 21:55N 54°51' W 005°48'0 0.0
2018-Jun-14 21:28N 54°51' W 005°48'0 0.0
2018-Jun-14 21:01N 54°51' W 005°48'510.9
2018-Jun-14 20:30N 54°54' W 005°40'917.6
2018-Jun-14 20:01N 54°57' W 005°26'918.2
2018-Jun-14 19:30N 55°01' W 005°12'612.8
2018-Jun-14 19:00N 54°58' W 005°02'1 1.4
2018-Jun-14 18:28N 54°58' W 005°01'0 0.0
2018-Jun-14 18:01N 54°58' W 005°01'0 0.1
2018-Jun-14 17:25N 54°58' W 005°01'510.4
2018-Jun-14 16:56N 55°01' W 005°07'919.3
2018-Jun-14 16:28N 54°58' W 005°22'920.3
2018-Jun-14 16:00N 54°54' W 005°36'714.9
2018-Jun-14 15:30N 54°51' W 005°48'0 0.1
2018-Jun-14 15:00N 54°51' W 005°48'0 0.0
2018-Jun-14 14:31N 54°51' W 005°48'712.3
2018-Jun-14 13:58N 54°54' W 005°38'1022.3
2018-Jun-14 13:30N 54°59' W 005°22'1115.4
2018-Jun-14 12:47N 54°59' W 005°03'2 3.8
2018-Jun-14 12:23N 54°58' W 005°01'0 0.1
2018-Jun-14 11:47N 54°58' W 005°01'612.7
2018-Jun-14 11:20N 55°02' W 005°08'721.0
2018-Jun-14 11:00N 54°59' W 005°19'1120.6
2018-Jun-14 10:28N 54°54' W 005°37'715.6
2018-Jun-14 10:00N 54°51' W 005°48'0 0.0
2018-Jun-14 09:30N 54°51' W 005°48'0 0.0
2018-Jun-14 09:00N 54°51' W 005°48'0 0.1
2018-Jun-14 08:30N 54°51' W 005°48'611.0
2018-Jun-14 07:57N 54°54' W 005°39'818.7
2018-Jun-14 07:30N 54°58' W 005°26'1314.0
2018-Jun-14 06:33N 54°59' W 005°02'115.1
2018-Jun-14 06:30N 54°58' W 005°02'1 0.4
2018-Jun-14 04:52N 54°58' W 005°01'611.2
2018-Jun-14 04:20N 55°01' W 005°09'618.2
2018-Jun-14 04:00N 54°59' W 005°18'1018.2
2018-Jun-14 03:28N 54°55' W 005°34'916.9
2018-Jun-14 02:57N 54°51' W 005°48'0 0.4
2018-Jun-14 02:30N 54°51' W 005°48'0 0.0
2018-Jun-14 02:00N 54°51' W 005°48'0 0.0
2018-Jun-14 01:30N 54°51' W 005°48'0 0.0
2018-Jun-14 01:00N 54°51' W 005°48'4 7.8
2018-Jun-14 00:30N 54°53' W 005°42'1020.7
2018-Jun-14 00:01N 54°58' W 005°26'1414.6
2018-Jun-13 23:04N 54°59' W 005°02'115.5
2018-Jun-13 23:00N 54°58' W 005°02'0 0.2
2018-Jun-13 20:56N 54°58' W 005°01'512.1
2018-Jun-13 20:30N 55°02' W 005°07'816.3
2018-Jun-13 20:01N 54°58' W 005°20'1019.7
2018-Jun-13 19:30N 54°54' W 005°35'815.9
2018-Jun-13 19:00N 54°51' W 005°48'0 0.2
2018-Jun-13 18:30N 54°51' W 005°48'0 0.0
2018-Jun-13 17:59N 54°51' W 005°48'0 0.0
2018-Jun-13 17:30N 54°51' W 005°48'510.6
2018-Jun-13 17:00N 54°54' W 005°40'1020.2
2018-Jun-13 16:31N 54°58' W 005°25'1316.1
2018-Jun-13 15:44N 54°59' W 005°03'2 2.9
2018-Jun-13 15:10N 54°58' W 005°01'0 0.0
2018-Jun-13 15:01N 54°58' W 005°01'0 0.3
2018-Jun-13 14:19N 54°58' W 005°01'613.2
2018-Jun-13 13:49N 55°01' W 005°11'721.7
2018-Jun-13 13:30N 54°58' W 005°22'918.5
2018-Jun-13 12:59N 54°54' W 005°37'713.6
2018-Jun-13 12:28N 54°51' W 005°48'0 0.1
2018-Jun-13 11:58N 54°51' W 005°48'0 0.0
2018-Jun-13 11:28N 54°51' W 005°48'510.1
2018-Jun-13 10:59N 54°53' W 005°41'918.7
2018-Jun-13 10:30N 54°58' W 005°27'1017.9
2018-Jun-13 09:56N 55°02' W 005°11'7 4.6
2018-Jun-13 08:28N 54°58' W 005°01'7 9.9
2018-Jun-13 07:43N 55°01' W 005°13'417.9
2018-Jun-13 07:30N 54°59' W 005°18'917.4
2018-Jun-13 07:00N 54°55' W 005°32'918.6
2018-Jun-13 06:30N 54°51' W 005°48'1 1.2
2018-Jun-13 05:55N 54°51' W 005°48'0 0.0
2018-Jun-13 05:30N 54°51' W 005°48'0 0.0
2018-Jun-13 05:00N 54°51' W 005°48'4 8.1
2018-Jun-13 04:28N 54°54' W 005°43'818.5
2018-Jun-13 04:00N 54°58' W 005°29'917.9
2018-Jun-13 03:29N 55°01' W 005°15'814.2
2018-Jun-13 02:56N 54°58' W 005°02'1 1.2
2018-Jun-13 02:15N 54°58' W 005°01'0 0.0
2018-Jun-13 01:59N 54°58' W 005°01'0 0.0
2018-Jun-13 01:17N 54°58' W 005°01'0 0.0
2018-Jun-13 00:58N 54°58' W 005°01'710.8
2018-Jun-13 00:18N 55°01' W 005°12'619.8
2018-Jun-13 00:00N 54°58' W 005°21'918.4
2018-Jun-12 23:30N 54°54' W 005°36'815.3
2018-Jun-12 23:00N 54°51' W 005°48'0 0.2
2018-Jun-12 22:30N 54°51' W 005°48'0 0.0
2018-Jun-12 22:00N 54°51' W 005°48'0 0.0
2018-Jun-12 21:30N 54°51' W 005°48'0 0.0
2018-Jun-12 21:00N 54°51' W 005°48'4 8.2
2018-Jun-12 20:30N 54°53' W 005°42'918.3
2018-Jun-12 20:00N 54°57' W 005°28'1018.6
2018-Jun-12 19:29N 55°01' W 005°12'612.7
2018-Jun-12 19:00N 54°59' W 005°02'1 2.1
2018-Jun-12 18:29N 54°58' W 005°01'0 0.0
2018-Jun-12 18:00N 54°58' W 005°01'0 0.0
2018-Jun-12 17:29N 54°58' W 005°01'5 9.5
2018-Jun-12 16:58N 55°02' W 005°06'918.9
2018-Jun-12 16:30N 54°58' W 005°20'1020.9
2018-Jun-12 16:00N 54°54' W 005°37'713.9
2018-Jun-12 15:30N 54°51' W 005°48'0 0.0
2018-Jun-12 14:56N 54°51' W 005°48'0 0.0
2018-Jun-12 14:30N 54°51' W 005°48'612.1
2018-Jun-12 14:00N 54°54' W 005°39'1019.2
2018-Jun-12 13:30N 54°58' W 005°24'918.2
2018-Jun-12 13:00N 55°01' W 005°09'612.1
2018-Jun-12 12:30N 54°58' W 005°01'0 0.0
2018-Jun-12 11:49N 54°58' W 005°01'0 0.0
2018-Jun-12 11:30N 54°58' W 005°01'5 9.0
2018-Jun-12 10:56N 55°02' W 005°07'818.9
2018-Jun-12 10:30N 54°58' W 005°19'918.3
2018-Jun-12 10:00N 54°55' W 005°34'917.0
2018-Jun-12 09:30N 54°51' W 005°48'0 0.2
2018-Jun-12 08:50N 54°51' W 005°48'0 0.0
2018-Jun-12 08:30N 54°51' W 005°48'610.0
2018-Jun-12 07:56N 54°54' W 005°40'716.1
2018-Jun-12 07:30N 54°57' W 005°29'918.3
2018-Jun-12 07:00N 55°01' W 005°14'713.8
2018-Jun-12 06:30N 54°59' W 005°02'1 0.8
2018-Jun-12 04:53N 54°58' W 005°01'611.0
2018-Jun-12 04:22N 55°01' W 005°08'617.9
2018-Jun-12 04:00N 54°59' W 005°18'1019.2
2018-Jun-12 03:30N 54°55' W 005°34'917.5
2018-Jun-12 03:00N 54°51' W 005°48'0 0.4
2018-Jun-12 02:30N 54°51' W 005°48'0 0.0
2018-Jun-12 02:00N 54°51' W 005°48'0 0.0
2018-Jun-12 01:30N 54°51' W 005°48'0 0.0
2018-Jun-12 01:00N 54°51' W 005°48'4 8.2
2018-Jun-12 00:29N 54°53' W 005°42'715.5
2018-Jun-12 00:00N 54°57' W 005°30'918.4
2018-Jun-11 23:30N 55°00' W 005°16'814.3
2018-Jun-11 22:58N 54°59' W 005°03'1 2.7
2018-Jun-11 22:26N 54°58' W 005°01'0 0.0
2018-Jun-11 20:56N 54°58' W 005°01'511.4
2018-Jun-11 20:27N 55°02' W 005°08'918.4
2018-Jun-11 19:58N 54°58' W 005°22'918.9
2018-Jun-11 19:30N 54°54' W 005°36'815.5
2018-Jun-11 19:01N 54°51' W 005°48'0 0.1
2018-Jun-11 18:24N 54°51' W 005°48'0 0.0
2018-Jun-11 18:00N 54°51' W 005°48'0 0.0
2018-Jun-11 17:30N 54°51' W 005°48'510.3
2018-Jun-11 17:00N 54°53' W 005°40'917.6
2018-Jun-11 16:30N 54°58' W 005°27'918.1
2018-Jun-11 16:00N 55°01' W 005°12'612.7
2018-Jun-11 15:30N 54°58' W 005°02'1 1.9
2018-Jun-11 14:58N 54°58' W 005°01'0 0.0
2018-Jun-11 14:30N 54°58' W 005°01'5 9.5
2018-Jun-11 13:55N 55°02' W 005°08'920.5
2018-Jun-11 13:30N 54°58' W 005°21'1020.3
2018-Jun-11 13:01N 54°54' W 005°37'713.6
2018-Jun-11 12:30N 54°51' W 005°48'0 0.0
2018-Jun-11 12:00N 54°51' W 005°48'0 0.0
2018-Jun-11 11:28N 54°51' W 005°48'510.1
2018-Jun-11 10:59N 54°54' W 005°41'918.2
2018-Jun-11 10:30N 54°57' W 005°27'918.2
2018-Jun-11 10:01N 55°01' W 005°13'713.9
2018-Jun-11 09:30N 54°58' W 005°02'1 1.0
2018-Jun-11 08:47N 54°58' W 005°01'0 0.0
2018-Jun-11 08:25N 54°58' W 005°01'610.4
2018-Jun-11 07:51N 55°02' W 005°09'618.1
2018-Jun-11 07:30N 54°59' W 005°18'1018.6
2018-Jun-11 06:58N 54°54' W 005°35'817.0
2018-Jun-11 06:28N 54°51' W 005°48'0 0.3
2018-Jun-11 06:00N 54°51' W 005°48'0 0.0
2018-Jun-11 05:29N 54°51' W 005°48'0 0.0
2018-Jun-11 05:00N 54°51' W 005°48'4 8.5
2018-Jun-11 04:30N 54°53' W 005°42'918.5
2018-Jun-11 04:00N 54°57' W 005°27'918.9
2018-Jun-11 03:30N 55°01' W 005°12'612.9
2018-Jun-11 03:00N 54°58' W 005°02'1 0.4
2018-Jun-11 00:51N 54°58' W 005°01'612.0
2018-Jun-11 00:23N 55°02' W 005°08'719.1
2018-Jun-11 00:00N 54°58' W 005°19'918.4
2018-Jun-10 23:30N 54°55' W 005°35'816.8
2018-Jun-10 23:00N 54°51' W 005°48'0 0.5
2018-Jun-10 22:30N 54°51' W 005°48'0 0.0
2018-Jun-10 22:00N 54°51' W 005°48'0 0.0
2018-Jun-10 21:30N 54°51' W 005°48'0 0.0
2018-Jun-10 20:59N 54°51' W 005°48'4 9.2
2018-Jun-10 20:30N 54°53' W 005°42'817.0
2018-Jun-10 20:00N 54°57' W 005°28'816.9
2018-Jun-10 19:30N 55°00' W 005°15'713.7
2018-Jun-10 18:59N 54°59' W 005°03'2 3.1
2018-Jun-10 18:28N 54°58' W 005°01'0 0.0
2018-Jun-10 17:58N 54°58' W 005°01'0 0.0
2018-Jun-10 17:28N 54°58' W 005°01'510.6
2018-Jun-10 16:58N 55°02' W 005°07'817.3
2018-Jun-10 16:30N 54°58' W 005°20'918.8
2018-Jun-10 16:00N 54°55' W 005°35'816.2
2018-Jun-10 15:30N 54°51' W 005°48'0 0.3
2018-Jun-10 14:57N 54°51' W 005°48'4 4.6
2018-Jun-10 14:00N 54°53' W 005°42'917.8
2018-Jun-10 13:30N 54°57' W 005°28'816.9
2018-Jun-10 13:00N 55°01' W 005°14'713.1
2018-Jun-10 12:28N 54°59' W 005°02'1 0.3
2018-Jun-10 08:27N 54°58' W 005°01'610.1
2018-Jun-10 07:52N 55°02' W 005°09'616.9
2018-Jun-10 07:30N 54°59' W 005°18'916.8
2018-Jun-10 07:00N 54°55' W 005°32'1018.7
2018-Jun-10 06:28N 54°52' W 005°47'1 2.0
2018-Jun-10 05:55N 54°51' W 005°48'0 0.0
2018-Jun-10 05:25N 54°51' W 005°48'0 0.0
2018-Jun-10 04:58N 54°51' W 005°48'0 0.0
2018-Jun-10 04:28N 54°51' W 005°48'0 0.0
2018-Jun-10 03:58N 54°51' W 005°48'0 0.0
2018-Jun-10 03:28N 54°51' W 005°48'0 0.0
2018-Jun-10 02:58N 54°51' W 005°48'0 0.0
2018-Jun-10 02:28N 54°51' W 005°48'0 0.0
2018-Jun-10 01:58N 54°51' W 005°48'0 0.0
2018-Jun-10 01:28N 54°51' W 005°48'0 0.0
2018-Jun-10 00:58N 54°51' W 005°48'0 0.0
2018-Jun-10 00:28N 54°51' W 005°48'0 0.0
2018-Jun-09 23:58N 54°51' W 005°48'0 0.0
2018-Jun-09 23:19N 54°51' W 005°48'0 0.0
2018-Jun-09 22:58N 54°51' W 005°48'0 0.0
2018-Jun-09 22:25N 54°51' W 005°48'0 0.0
2018-Jun-09 21:58N 54°51' W 005°48'0 0.0
2018-Jun-09 21:16N 54°51' W 005°48'0 0.0
2018-Jun-09 21:00N 54°51' W 005°48'4 7.5
2018-Jun-09 20:30N 54°53' W 005°43'917.2
2018-Jun-09 20:00N 54°57' W 005°29'917.7
2018-Jun-09 19:30N 55°00' W 005°15'713.7
2018-Jun-09 19:00N 54°59' W 005°03'2 3.7
2018-Jun-09 18:26N 54°58' W 005°01'0 0.0
2018-Jun-09 17:56N 54°58' W 005°01'0 0.0
2018-Jun-09 17:29N 54°58' W 005°01'5 9.0
2018-Jun-09 16:57N 55°02' W 005°06'817.5
2018-Jun-09 16:30N 54°59' W 005°19'918.3
2018-Jun-09 16:00N 54°55' W 005°33'9 8.9
2018-Jun-09 14:57N 54°51' W 005°48'0 0.0
2018-Jun-09 14:27N 54°51' W 005°48'510.8
2018-Jun-09 14:00N 54°54' W 005°41'918.4
2018-Jun-09 13:30N 54°58' W 005°27'918.2
2018-Jun-09 12:59N 55°02' W 005°12'714.2
2018-Jun-09 12:30N 54°58' W 005°01'0 0.4
2018-Jun-09 11:41N 54°58' W 005°01'0 0.5
2018-Jun-09 11:18N 54°58' W 005°01'514.3
2018-Jun-09 10:57N 55°02' W 005°07'919.3
2018-Jun-09 10:31N 54°58' W 005°20'1019.1
2018-Jun-09 10:00N 54°54' W 005°36'815.7
2018-Jun-09 09:30N 54°51' W 005°48'0 0.1
2018-Jun-09 09:00N 54°51' W 005°48'0 0.0
2018-Jun-09 08:28N 54°51' W 005°48'3 5.6
2018-Jun-09 08:01N 54°53' W 005°45'918.8
2018-Jun-09 07:30N 54°57' W 005°30'918.6
2018-Jun-09 07:00N 55°01' W 005°15'714.5
2018-Jun-09 06:30N 54°59' W 005°03'2 3.1
2018-Jun-09 05:59N 54°58' W 005°01'0 0.0
2018-Jun-09 05:17N 54°58' W 005°01'0 0.0
2018-Jun-09 05:00N 54°58' W 005°01'510.2
2018-Jun-09 04:29N 55°02' W 005°07'714.8
2018-Jun-09 04:01N 54°59' W 005°19'816.5
2018-Jun-09 03:30N 54°55' W 005°32'918.1
2018-Jun-09 03:00N 54°52' W 005°47'1 2.8
2018-Jun-09 02:30N 54°51' W 005°48'0 0.0
2018-Jun-09 02:00N 54°51' W 005°48'0 0.0
2018-Jun-09 01:30N 54°51' W 005°48'0 0.0
2018-Jun-09 00:59N 54°51' W 005°48'4 7.3
2018-Jun-09 00:30N 54°53' W 005°43'917.5
2018-Jun-09 00:00N 54°57' W 005°30'1018.2
2018-Jun-08 23:27N 55°01' W 005°13'614.5
2018-Jun-08 23:00N 54°59' W 005°03'2 2.8
2018-Jun-08 22:26N 54°58' W 005°01'0 0.0
2018-Jun-08 21:44N 54°58' W 005°01'0 0.6
2018-Jun-08 21:30N 54°58' W 005°01'612.8
2018-Jun-08 21:00N 55°01' W 005°11'1122.7
2018-Jun-08 20:30N 54°56' W 005°28'1121.3
2018-Jun-08 19:59N 54°52' W 005°47'1 2.8
2018-Jun-08 19:28N 54°51' W 005°48'0 0.0
2018-Jun-08 18:58N 54°51' W 005°48'0 0.0
2018-Jun-08 18:28N 54°51' W 005°48'0 0.0
2018-Jun-08 17:58N 54°51' W 005°48'0 0.0
2018-Jun-08 17:28N 54°51' W 005°48'510.0
2018-Jun-08 17:00N 54°53' W 005°41'919.0
2018-Jun-08 16:30N 54°58' W 005°26'1019.3
2018-Jun-08 16:00N 55°02' W 005°12'714.6
2018-Jun-08 15:30N 54°58' W 005°01'0 0.0
2018-Jun-08 14:35N 54°58' W 005°01'0 0.0
2018-Jun-08 14:28N 54°58' W 005°01'5 9.4
2018-Jun-08 13:54N 55°02' W 005°08'820.3
2018-Jun-08 13:30N 54°58' W 005°20'1121.3
2018-Jun-08 13:00N 54°54' W 005°37'713.6
2018-Jun-08 12:30N 54°51' W 005°48'0 0.0
2018-Jun-08 11:58N 54°51' W 005°48'0 0.0
2018-Jun-08 11:30N 54°51' W 005°48'510.1
2018-Jun-08 11:00N 54°54' W 005°41'918.7
2018-Jun-08 10:30N 54°59' W 005°27'918.4
2018-Jun-08 10:01N 55°04' W 005°14'816.4
2018-Jun-08 09:31N 54°59' W 005°02'1 2.4
2018-Jun-08 08:58N 54°58' W 005°01'0 0.0
2018-Jun-08 08:28N 54°58' W 005°01'5 9.4
2018-Jun-08 07:54N 55°02' W 005°07'717.1
2018-Jun-08 07:30N 54°59' W 005°18'917.1
2018-Jun-08 07:00N 54°55' W 005°32'918.8
2018-Jun-08 06:30N 54°52' W 005°47'1 2.5
2018-Jun-08 05:58N 54°51' W 005°48'0 0.0
2018-Jun-08 05:28N 54°51' W 005°48'0 0.0
2018-Jun-08 05:00N 54°51' W 005°48'5 9.4
2018-Jun-08 04:30N 54°53' W 005°41'815.4
2018-Jun-08 04:01N 54°57' W 005°29'917.5
2018-Jun-08 03:30N 55°00' W 005°15'714.5
2018-Jun-08 03:00N 54°59' W 005°03'1 2.2
2018-Jun-08 02:19N 54°58' W 005°01'0 0.0
2018-Jun-08 01:13N 54°58' W 005°01'0 0.0
2018-Jun-08 01:00N 54°58' W 005°01'3 6.8
2018-Jun-08 00:30N 55°00' W 005°04'  

Dump ship's entire track history